Terminal Aerodrome Forecast
Issued by NWS

Home | Current Version | Previous Version | Text Only | Print | Product List | Glossary On
Versions: 1 2 3 4 5 6 7 8 9 10 11 12 13 14 15 16 17 18 19 20 21 22 23 24 25 26 27 28 29 30 31 32 33 34 35 36 37
000
FTUS45 KGGW 301100
TAFOLF
TAF
KOLF 301133Z 3012/3112 08010KT P6SM BKN200
     FM301700 11016KT P6SM BKN150
     FM310000 12015KT P6SM -SHRA BKN060
     FM310600 11012KT P6SM VCSH OVC080=

USA.gov is the U.S. government's official web portal to all federal, state and local government web resources and services.